createdAt,value
2022-09-06T00:01:39.998Z,96113.78
2022-09-06T00:04:26.055Z,96118.38
2022-09-06T00:07:12.212Z,96109.72
2022-09-06T00:09:58.268Z,96114.47
2022-09-06T00:12:44.363Z,96109.72
2022-09-06T00:15:30.693Z,96118.75
2022-09-06T00:18:16.570Z,96103.22
2022-09-06T00:21:03.485Z,96109.50
2022-09-06T00:23:50.060Z,96118.97
2022-09-06T00:26:35.987Z,96114.28
2022-09-06T00:29:21.920Z,96114.28
2022-09-06T00:32:08.536Z,96120.47
2022-09-06T00:34:54.468Z,96118.19
2022-09-06T00:37:40.196Z,96121.28
2022-09-06T00:40:29.533Z,96113.41
2022-09-06T00:43:15.599Z,96118.09
2022-09-06T00:46:03.626Z,96122.75
2022-09-06T00:48:53.867Z,96121.09
2022-09-06T00:51:39.832Z,96123.03
2022-09-06T00:54:26.290Z,96122.69
2022-09-06T00:57:12.563Z,96117.09
2022-09-06T00:59:59.097Z,96122.13
2022-09-06T01:02:45.378Z,96123.72
2022-09-06T01:06:06.643Z,96122.41
2022-09-06T01:09:22.874Z,96120.81
2022-09-06T01:12:14.585Z,96122.06
2022-09-06T01:15:17.894Z,96129.38
2022-09-06T01:18:30.300Z,96127.66
2022-09-06T01:21:38.846Z,96116.69
2022-09-06T01:24:51.383Z,96121.31
2022-09-06T01:27:52.781Z,96121.31
2022-09-06T01:30:44.474Z,96109.88
2022-09-06T01:34:03.864Z,96111.72
2022-09-06T01:37:08.472Z,96116.53
2022-09-06T01:39:56.358Z,96103.03
2022-09-06T01:42:45.174Z,96101.47
2022-09-06T01:45:49.277Z,96107.66
2022-09-06T01:48:45.222Z,96095.78
2022-09-06T01:51:56.079Z,96096.94
2022-09-06T01:54:50.957Z,96097.88
2022-09-06T01:57:39.790Z,96094.69
2022-09-06T02:00:25.800Z,96086.69
2022-09-06T02:03:25.695Z,96084.03
2022-09-06T02:06:18.726Z,96078.25
2022-09-06T02:09:11.740Z,96081.28
2022-09-06T02:12:00.318Z,96081.44
2022-09-06T02:14:59.973Z,96077.56
2022-09-06T02:18:10.077Z,96082.34
2022-09-06T02:21:01.720Z,96079.16
2022-09-06T02:23:47.872Z,96081.63
2022-09-06T02:26:38.140Z,96085.50
2022-09-06T02:29:24.133Z,96088.69
2022-09-06T02:32:22.312Z,96085.50
2022-09-06T02:35:13.514Z,96081.63
2022-09-06T02:37:59.435Z,96085.97
2022-09-06T02:40:46.305Z,96078.88
2022-09-06T02:43:32.173Z,96092.25
2022-09-06T02:46:18.028Z,96087.09
2022-09-06T02:49:04.305Z,96089.16
2022-09-06T02:51:50.944Z,96091.91
2022-09-06T02:54:36.916Z,96090.31
2022-09-06T02:57:23.210Z,96098.53
2022-09-06T03:00:09.913Z,96085.97
2022-09-06T03:02:56.494Z,96090.66
2022-09-06T03:05:43.087Z,96086.31
2022-09-06T03:08:34.263Z,96094.19
2022-09-06T03:11:20.259Z,96083.22
2022-09-06T03:14:06.205Z,96088.00
2022-09-06T03:16:52.357Z,96082.41
2022-09-06T03:19:38.209Z,96094.63
2022-09-06T03:22:24.340Z,96081.63
2022-09-06T03:25:10.915Z,96090.31
2022-09-06T03:27:56.638Z,96084.81
2022-09-06T03:30:45.152Z,96077.75
2022-09-06T03:33:31.177Z,96085.63
2022-09-06T03:36:17.575Z,96080.13
2022-09-06T03:39:03.714Z,96079.34
2022-09-06T03:41:49.925Z,96082.53
2022-09-06T03:44:39.967Z,96069.06
2022-09-06T03:47:25.961Z,96077.03
2022-09-06T03:50:14.168Z,96080.13
2022-09-06T03:53:00.179Z,96072.97
2022-09-06T03:55:51.128Z,96081.63
2022-09-06T03:58:36.950Z,96076.06
2022-09-06T04:01:23.071Z,96076.75
2022-09-06T04:04:09.112Z,96081.53
2022-09-06T04:07:13.107Z,96042.00
2022-09-06T04:09:58.932Z,96066.72
2022-09-06T04:12:45.506Z,96076.63
2022-09-06T04:15:31.330Z,96078.91
2022-09-06T04:18:18.152Z,96077.44
2022-09-06T04:21:07.269Z,96086.25
2022-09-06T04:23:53.912Z,96081.09
2022-09-06T04:26:39.902Z,96084.88
2022-09-06T04:29:26.048Z,96084.19
2022-09-06T04:32:11.822Z,96082.59
2022-09-06T04:34:57.729Z,96086.94
2022-09-06T04:37:43.620Z,96090.47
2022-09-06T04:40:32.126Z,96094.69
2022-09-06T04:43:23.061Z,96091.25
2022-09-06T04:46:25.326Z,96076.91
2022-09-06T04:49:11.788Z,96079.41
2022-09-06T04:51:58.259Z,96078.25
2022-09-06T04:54:44.217Z,96075.50
2022-09-06T04:57:30.665Z,96067.56
2022-09-06T05:00:19.457Z,96072.34
2022-09-06T05:03:06.298Z,96081.09
2022-09-06T05:05:53.281Z,96081.91
2022-09-06T05:08:41.087Z,96074.81
2022-09-06T05:11:27.456Z,96084.28
2022-09-06T05:14:13.293Z,96085.09
2022-09-06T05:16:59.239Z,96084.28
2022-09-06T05:19:45.289Z,96087.56
2022-09-06T05:22:31.153Z,96090.31
2022-09-06T05:25:17.102Z,96088.50
2022-09-06T05:28:03.263Z,96098.06
2022-09-06T05:31:11.934Z,96096.03
2022-09-06T05:34:10.634Z,96102.16
2022-09-06T05:36:56.631Z,96099.88
2022-09-06T05:39:42.494Z,96102.81
2022-09-06T05:42:28.577Z,96099.38
2022-09-06T05:45:14.494Z,96100.25
2022-09-06T05:48:00.555Z,96094.06
2022-09-06T05:50:46.401Z,96091.78
2022-09-06T05:53:36.901Z,96092.25
2022-09-06T05:56:23.288Z,96091.78
2022-09-06T05:59:09.511Z,96089.50
2022-09-06T06:01:55.702Z,96100.91
2022-09-06T06:04:41.820Z,96100.53
2022-09-06T06:07:27.638Z,96092.69
2022-09-06T06:10:13.468Z,96096.31
2022-09-06T06:12:59.399Z,96091.28
2022-09-06T06:15:45.027Z,96086.69
2022-09-06T06:18:30.813Z,96087.56
2022-09-06T06:21:20.434Z,96089.38
2022-09-06T06:24:07.054Z,96090.94
2022-09-06T06:26:52.769Z,96083.50
2022-09-06T06:29:38.558Z,96090.34
2022-09-06T06:32:24.209Z,96083.34
2022-09-06T06:35:10.359Z,96077.88
2022-09-06T06:37:57.076Z,96087.41
2022-09-06T06:40:45.990Z,96078.75
2022-09-06T06:43:36.401Z,96088.34
2022-09-06T06:46:24.158Z,96082.38
2022-09-06T06:49:09.924Z,96083.66
2022-09-06T06:51:55.806Z,96089.56
2022-09-06T06:54:41.838Z,96077.81
2022-09-06T06:57:27.657Z,96078.97
2022-09-06T07:00:13.876Z,96086.91
2022-09-06T07:03:00.141Z,96090.09
2022-09-06T07:08:54.391Z,96085.41
2022-09-06T07:11:40.349Z,96091.69
2022-09-06T07:14:26.318Z,96086.22
2022-09-06T07:17:12.443Z,96090.28
2022-09-06T07:20:14.509Z,96096.66
2022-09-06T07:26:21.422Z,96098.25
2022-09-06T07:29:07.853Z,96099.13
2022-09-06T07:32:13.004Z,96096.03
2022-09-06T07:34:58.818Z,96091.31
2022-09-06T07:37:52.089Z,96097.63
2022-09-06T07:40:38.144Z,96105.66
2022-09-06T07:43:25.496Z,96088.31
2022-09-06T07:46:15.670Z,96097.97
2022-09-06T07:49:04.301Z,96107.44
2022-09-06T07:51:50.251Z,96098.47
2022-09-06T07:54:35.918Z,96090.25
2022-09-06T07:57:21.740Z,96088.03
2022-09-06T08:00:08.298Z,96090.44
2022-09-06T08:02:57.372Z,96094.81
2022-09-06T08:08:57.560Z,96094.56
2022-09-06T08:11:43.921Z,96092.72
2022-09-06T08:14:29.878Z,96092.75
2022-09-06T08:17:15.706Z,96085.41
2022-09-06T08:20:05.006Z,96087.91
2022-09-06T08:22:50.922Z,96080.97
2022-09-06T08:25:36.731Z,96081.88
2022-09-06T08:28:25.583Z,96073.66
2022-09-06T08:31:16.908Z,96075.00
2022-09-06T08:34:03.092Z,96066.41
2022-09-06T08:36:48.743Z,96071.31
2022-09-06T08:39:34.918Z,96053.94
2022-09-06T08:42:20.838Z,96062.03
2022-09-06T08:45:12.518Z,96063.34
2022-09-06T08:47:58.522Z,96063.06
2022-09-06T08:51:12.507Z,96065.38
2022-09-06T08:54:06.721Z,96062.25
2022-09-06T08:57:11.406Z,96054.50
2022-09-06T09:00:03.495Z,96058.13
2022-09-06T09:02:53.860Z,96062.16
2022-09-06T09:05:41.057Z,96054.78
2022-09-06T09:08:29.701Z,96057.25
2022-09-06T09:11:18.783Z,96055.31
2022-09-06T09:14:13.582Z,96052.06
2022-09-06T09:17:06.720Z,96045.88
2022-09-06T09:19:56.158Z,96048.75
2022-09-06T09:22:42.734Z,96049.00
2022-09-06T09:25:33.030Z,96040.50
2022-09-06T09:28:24.907Z,96031.00
2022-09-06T09:31:10.992Z,96033.47
2022-09-06T09:33:57.252Z,96034.63
2022-09-06T09:39:51.588Z,96019.69
2022-09-06T09:42:37.986Z,96028.06
2022-09-06T09:45:29.466Z,96027.34
2022-09-06T09:48:29.615Z,96035.00
2022-09-06T09:51:27.689Z,96019.78
2022-09-06T09:54:15.773Z,96023.09
2022-09-06T09:57:02.094Z,96016.16
2022-09-06T09:59:54.380Z,96010.34
2022-09-06T10:02:42.047Z,96011.63
2022-09-06T10:05:28.095Z,96014.81
2022-09-06T10:08:14.375Z,96012.22
2022-09-06T10:11:01.041Z,96010.75
2022-09-06T10:13:46.829Z,96008.56
2022-09-06T10:16:44.895Z,96016.50
2022-09-06T10:19:40.980Z,96006.03
2022-09-06T10:22:31.930Z,96009.31
2022-09-06T10:25:38.423Z,96011.47
2022-09-06T10:28:31.507Z,95990.72
2022-09-06T10:32:07.161Z,95993.97
2022-09-06T10:35:19.911Z,95998.16
2022-09-06T10:42:54.668Z,95983.59
2022-09-06T10:50:25.268Z,95974.88
2022-09-06T10:53:27.510Z,95977.38
2022-09-06T10:56:23.314Z,95977.88
2022-09-06T11:02:44.231Z,95977.66
2022-09-06T11:06:04.335Z,95986.00
2022-09-06T11:09:03.227Z,95979.34
2022-09-06T11:11:53.724Z,95978.25
2022-09-06T11:14:40.825Z,95974.72
2022-09-06T11:17:52.862Z,95977.97
2022-09-06T11:20:47.076Z,95965.41
2022-09-06T11:23:43.021Z,95958.78
2022-09-06T11:26:34.708Z,95960.44
2022-09-06T11:29:25.198Z,95970.75
2022-09-06T11:32:29.745Z,95968.06
2022-09-06T11:35:41.825Z,95955.09
2022-09-06T11:38:28.842Z,95953.22
2022-09-06T11:41:16.718Z,95937.16
2022-09-06T11:44:04.217Z,95935.75
2022-09-06T11:46:49.904Z,95933.91
2022-09-06T11:49:37.553Z,95937.56
2022-09-06T11:53:01.030Z,95930.50
2022-09-06T11:55:52.539Z,95921.75
2022-09-06T11:59:02.132Z,95919.72
2022-09-06T12:02:02.785Z,95919.16
2022-09-06T12:05:01.037Z,95916.69
2022-09-06T12:08:14.965Z,95919.75
2022-09-06T12:11:04.854Z,95917.31
2022-09-06T12:14:03.548Z,95910.16
2022-09-06T12:16:59.142Z,95907.72
2022-09-06T12:19:53.318Z,95913.28
2022-09-06T12:22:40.470Z,95916.44
2022-09-06T12:25:38.759Z,95899.78
2022-09-06T12:28:47.573Z,95899.06
2022-09-06T12:31:42.910Z,95915.00
2022-09-06T12:34:34.656Z,95904.78
2022-09-06T12:37:32.616Z,95907.25
2022-09-06T12:40:20.195Z,95906.94
2022-09-06T12:43:10.016Z,95898.72
2022-09-06T12:45:56.268Z,95890.09
2022-09-06T12:48:44.550Z,95896.44
2022-09-06T12:51:30.415Z,95890.91
2022-09-06T12:54:26.343Z,95897.25
2022-09-06T12:57:23.937Z,95890.16
2022-09-06T13:00:10.222Z,95891.72
2022-09-06T13:03:21.541Z,95891.72
2022-09-06T13:06:07.967Z,95885.00
2022-09-06T13:08:57.053Z,95885.38
2022-09-06T13:11:45.349Z,95882.59
2022-09-06T13:14:32.609Z,95882.25
2022-09-06T13:17:27.345Z,95884.59
2022-09-06T13:20:23.957Z,95884.13
2022-09-06T13:23:13.229Z,95873.84
2022-09-06T13:25:59.296Z,95874.56
2022-09-06T13:28:45.044Z,95882.84
2022-09-06T13:31:31.826Z,95879.25
2022-09-06T13:34:29.052Z,95885.94
2022-09-06T13:37:15.098Z,95882.78
2022-09-06T13:40:05.163Z,95870.88
2022-09-06T13:43:00.520Z,95874.06
2022-09-06T13:45:47.255Z,95873.28
2022-09-06T13:48:33.929Z,95866.94
2022-09-06T13:51:19.916Z,95865.41
2022-09-06T13:54:11.872Z,95874.94
2022-09-06T13:56:57.969Z,95871.03
2022-09-06T13:59:44.057Z,95859.97
2022-09-06T14:02:30.320Z,95852.88
2022-09-06T14:05:16.796Z,95855.28
2022-09-06T14:08:02.916Z,95849.34
2022-09-06T14:10:49.698Z,95848.97
2022-09-06T14:13:35.684Z,95847.00
2022-09-06T14:16:21.986Z,95840.31
2022-09-06T14:19:08.010Z,95839.53
2022-09-06T14:21:54.062Z,95846.22
2022-09-06T14:24:39.924Z,95848.63
2022-09-06T14:27:25.674Z,95848.59
2022-09-06T14:30:12.077Z,95842.66
2022-09-06T14:32:58.151Z,95841.47
2022-09-06T14:35:44.290Z,95838.72
2022-09-06T14:38:30.332Z,95841.09
2022-09-06T14:41:18.053Z,95841.47
2022-09-06T14:44:04.367Z,95828.81
2022-09-06T14:46:53.518Z,95815.34
2022-09-06T14:49:39.305Z,95830.75
2022-09-06T14:52:25.597Z,95829.94
2022-09-06T14:55:12.679Z,95832.72
2022-09-06T14:57:59.457Z,95834.66
2022-09-06T15:00:46.670Z,95830.28
2022-09-06T15:03:32.405Z,95819.94
2022-09-06T15:06:20.344Z,95817.13
2022-09-06T15:09:07.650Z,95821.50
2022-09-06T15:11:54.103Z,95816.34
2022-09-06T15:14:41.223Z,95816.72
2022-09-06T15:17:27.241Z,95829.75
2022-09-06T15:20:12.986Z,95823.34
2022-09-06T15:23:15.145Z,95824.13
2022-09-06T15:26:08.339Z,95835.97
2022-09-06T15:28:54.694Z,95820.91
2022-09-06T15:31:42.156Z,95826.47
2022-09-06T15:34:28.251Z,95824.06
2022-09-06T15:37:14.359Z,95820.91
2022-09-06T15:40:00.328Z,95830.44
2022-09-06T15:42:46.421Z,95826.47
2022-09-06T15:45:47.259Z,95832.00
2022-09-06T15:48:48.337Z,95823.75
2022-09-06T15:51:35.870Z,95825.72
2022-09-06T15:54:41.667Z,95828.13
2022-09-06T15:57:28.965Z,95825.38
2022-09-06T16:00:17.225Z,95826.63
2022-09-06T16:03:03.464Z,95825.44
2022-09-06T16:09:04.257Z,95829.06
2022-09-06T16:11:50.011Z,95825.91
2022-09-06T16:14:35.875Z,95824.38
2022-09-06T16:17:22.393Z,95832.72
2022-09-06T16:20:08.537Z,95828.41
2022-09-06T16:22:54.369Z,95830.41
2022-09-06T16:25:40.535Z,95831.59
2022-09-06T16:28:29.033Z,95825.31
2022-09-06T16:31:15.234Z,95828.84
2022-09-06T16:34:01.459Z,95827.63
2022-09-06T16:36:50.193Z,95833.59
2022-09-06T16:39:37.245Z,95830.44
2022-09-06T16:42:24.569Z,95825.69
2022-09-06T16:45:12.067Z,95829.25
2022-09-06T16:48:00.732Z,95829.63
2022-09-06T16:50:46.976Z,95831.53
2022-09-06T16:53:32.950Z,95824.03
2022-09-06T16:56:21.447Z,95829.97
2022-09-06T16:59:08.945Z,95831.50
2022-09-06T17:01:56.187Z,95827.53
2022-09-06T17:04:42.879Z,95834.63
2022-09-06T17:07:28.753Z,95835.78
2022-09-06T17:10:14.482Z,95839.31
2022-09-06T17:13:00.559Z,95845.63
2022-09-06T17:16:12.818Z,95849.88
2022-09-06T17:18:59.976Z,95856.53
2022-09-06T17:21:46.458Z,95843.47
2022-09-06T17:24:32.616Z,95854.91
2022-09-06T17:27:18.868Z,95861.97
2022-09-06T17:30:05.293Z,95866.28
2022-09-06T17:32:51.263Z,95868.97
2022-09-06T17:35:37.677Z,95868.56
2022-09-06T17:38:24.093Z,95869.28
2022-09-06T17:41:24.243Z,95868.78
2022-09-06T17:44:11.206Z,95876.66
2022-09-06T17:47:12.067Z,95881.72
2022-09-06T17:49:59.120Z,95885.97
2022-09-06T17:52:46.001Z,95884.34
2022-09-06T17:55:32.555Z,95896.97
2022-09-06T17:58:20.031Z,95890.56
2022-09-06T18:01:08.575Z,95896.44
2022-09-06T18:03:54.696Z,95886.13
2022-09-06T18:06:43.230Z,95892.75
2022-09-06T18:09:29.434Z,95899.84
2022-09-06T18:12:15.135Z,95909.28
2022-09-06T18:15:02.365Z,95916.72
2022-09-06T18:17:49.024Z,95919.38
2022-09-06T18:20:36.100Z,95920.88
2022-09-06T18:23:22.453Z,95931.09
2022-09-06T18:26:08.735Z,95934.16
2022-09-06T18:28:54.865Z,95941.59
2022-09-06T18:31:41.624Z,95941.94
2022-09-06T18:34:27.931Z,95943.41
2022-09-06T18:37:14.605Z,95939.41
2022-09-06T18:40:00.655Z,95934.22
2022-09-06T18:42:47.202Z,95951.09
2022-09-06T18:45:35.834Z,95946.28
2022-09-06T18:48:21.719Z,95947.84
2022-09-06T18:51:11.833Z,95953.28
2022-09-06T18:53:59.712Z,95953.22
2022-09-06T18:56:45.753Z,95956.31
2022-09-06T18:59:31.672Z,95956.22
2022-09-06T19:02:17.686Z,95949.06
2022-09-06T19:05:03.826Z,95952.16
2022-09-06T19:07:49.839Z,95956.41
2022-09-06T19:10:35.914Z,95962.22
2022-09-06T19:13:21.966Z,95961.00
2022-09-06T19:16:09.672Z,95959.78
2022-09-06T19:18:57.085Z,95964.88
2022-09-06T19:21:43.181Z,95961.25
2022-09-06T19:24:29.150Z,95962.84
2022-09-06T19:27:15.344Z,95969.09
2022-09-06T19:30:01.566Z,95968.66
2022-09-06T19:32:47.935Z,95969.81
2022-09-06T19:35:43.731Z,95965.81
2022-09-06T19:39:02.109Z,95957.81
2022-09-06T19:41:50.592Z,95961.34
2022-09-06T19:44:37.051Z,95956.59
2022-09-06T19:47:23.265Z,95965.25
2022-09-06T19:50:09.250Z,95960.84
2022-09-06T19:52:56.382Z,95960.06
2022-09-06T19:55:42.391Z,95960.03
2022-09-06T19:58:29.321Z,95944.91
2022-09-06T20:01:18.118Z,95949.63
2022-09-06T20:04:07.495Z,95954.25
2022-09-06T20:06:53.607Z,95950.19
2022-09-06T20:09:40.152Z,95962.75
2022-09-06T20:12:25.911Z,95950.44
2022-09-06T20:15:11.884Z,95946.84
2022-09-06T20:17:57.974Z,95958.56
2022-09-06T20:20:44.885Z,95945.13
2022-09-06T20:23:32.456Z,95933.63
2022-09-06T20:26:19.696Z,95941.09
2022-09-06T20:29:06.581Z,95941.81
2022-09-06T20:31:52.877Z,95940.53
2022-09-06T20:34:38.654Z,95945.16
2022-09-06T20:37:24.663Z,95946.63
2022-09-06T20:40:11.415Z,95950.44
2022-09-06T20:42:57.684Z,95943.53
2022-09-06T20:45:45.914Z,95949.81
2022-09-06T20:48:32.845Z,95952.91
2022-09-06T20:51:21.219Z,95945.03
2022-09-06T20:54:07.370Z,95948.94
2022-09-06T20:56:54.181Z,95943.88
2022-09-06T20:59:40.004Z,95932.44
2022-09-06T21:02:26.043Z,95934.03
2022-09-06T21:05:11.879Z,95936.34
2022-09-06T21:07:58.071Z,95946.53
2022-09-06T21:10:44.397Z,95945.75
2022-09-06T21:13:30.667Z,95948.94
2022-09-06T21:16:21.820Z,95944.94
2022-09-06T21:19:11.048Z,95942.44
2022-09-06T21:21:57.083Z,95940.09
2022-09-06T21:24:42.927Z,95951.97
2022-09-06T21:27:29.015Z,95955.84
2022-09-06T21:30:14.828Z,95947.63
2022-09-06T21:33:01.016Z,95951.06
2022-09-06T21:35:46.833Z,95946.31
2022-09-06T21:38:38.451Z,95943.84
2022-09-06T21:41:24.982Z,95950.94
2022-09-06T21:44:11.388Z,95957.16
2022-09-06T21:46:58.054Z,95948.47
2022-09-06T21:49:44.032Z,95944.88
2022-09-06T21:52:32.476Z,95947.97
2022-09-06T21:55:18.361Z,95946.69
2022-09-06T21:58:04.173Z,95948.19
2022-09-06T22:00:54.024Z,95941.38
2022-09-06T22:03:40.405Z,95934.59
2022-09-06T22:06:31.232Z,95946.03
2022-09-06T22:09:17.339Z,95947.00
2022-09-06T22:12:04.058Z,95936.53
2022-09-06T22:14:50.038Z,95946.63
2022-09-06T22:17:36.159Z,95935.13
2022-09-06T22:20:23.080Z,95939.25
2022-09-06T22:23:09.994Z,95940.19
2022-09-06T22:26:07.706Z,95935.22
2022-09-06T22:29:01.331Z,95946.19
2022-09-06T22:31:47.680Z,95939.09
2022-09-06T22:34:34.118Z,95946.88
2022-09-06T22:37:20.276Z,95938.22
2022-09-06T22:40:06.905Z,95946.44
2022-09-06T22:42:53.415Z,95936.63
2022-09-06T22:45:39.423Z,95929.84
2022-09-06T22:48:25.496Z,95933.88
2022-09-06T22:51:11.762Z,95932.28
2022-09-06T22:53:57.604Z,95937.31
2022-09-06T22:56:43.680Z,95929.84
2022-09-06T22:59:30.325Z,95931.69
2022-09-06T23:02:16.402Z,95932.13
2022-09-06T23:05:02.191Z,95938.31
2022-09-06T23:07:49.689Z,95939.47
2022-09-06T23:10:41.725Z,95936.66
2022-09-06T23:13:27.789Z,95931.97
2022-09-06T23:16:17.205Z,95932.31
2022-09-06T23:19:03.469Z,95926.28
2022-09-06T23:21:49.396Z,95937.72
2022-09-06T23:24:35.428Z,95932.47
2022-09-06T23:27:22.110Z,95932.13
2022-09-06T23:30:08.812Z,95930.53
2022-09-06T23:32:56.598Z,95948.16
2022-09-06T23:35:43.716Z,95935.97
2022-09-06T23:38:29.932Z,95943.72
2022-09-06T23:41:16.273Z,95943.97
2022-09-06T23:44:02.542Z,95936.03
2022-09-06T23:46:48.469Z,95938.78
2022-09-06T23:49:34.311Z,95941.53
2022-09-06T23:52:20.142Z,95941.44
2022-09-06T23:55:06.430Z,95939.03
2022-09-06T23:57:52.600Z,95928.34
